Time;durP1;ratioP1;P1;durP2;ratioP2;P2;SDS_P1;SDS_P2;PMS_P1;PMS_P2;Temp;Humidity;BMP_temperature;BMP_pressure;BME280_temperature;BME280_humidity;BME280_pressure;Samples;Min_cycle;Max_cycle;Signal;HPM_P1;HPM_P2
2021/05/29 00:00:48;;;;;;;;;5.00;5.00;;;;;;;;3577180;39;112316;-77
2021/05/29 00:03:14;;;;;;;;;4.50;4.50;;;;;;;;3574357;39;113930;-78
2021/05/29 00:05:41;;;;;;;;;6.00;5.00;;;;;;;;3574570;39;112347;-78
2021/05/29 00:08:07;;;;;;;;;4.00;4.00;;;;;;;;3574718;39;113471;-77
2021/05/29 00:10:33;;;;;;;;;6.00;6.00;;;;;;;;3574240;39;113950;-78
2021/05/29 00:13:00;;;;;;;;;5.00;5.00;;;;;;;;3574572;39;112062;-78
2021/05/29 00:15:27;;;;;;;;;7.50;6.25;;;;;;;;3575012;39;113218;-77
2021/05/29 00:17:53;;;;;;;;;7.00;5.75;;;;;;;;3574296;39;113925;-77
2021/05/29 00:20:19;;;;;;;;;6.50;6.50;;;;;;;;3574767;39;111887;-78
2021/05/29 00:22:46;;;;;;;;;4.50;4.50;;;;;;;;3576971;39;113222;-77
2021/05/29 00:25:12;;;;;;;;;5.75;5.00;;;;;;;;3574823;39;112751;-77
2021/05/29 00:27:38;;;;;;;;;6.00;5.75;;;;;;;;3574803;39;113297;-78
2021/05/29 00:30:04;;;;;;;;;8.00;5.00;;;;;;;;3574078;39;114168;-78
2021/05/29 00:32:31;;;;;;;;;6.50;5.25;;;;;;;;3574668;39;111921;-78
2021/05/29 00:34:57;;;;;;;;;5.00;5.00;;;;;;;;3574443;39;113287;-79
2021/05/29 00:37:23;;;;;;;;;6.75;5.00;;;;;;;;3573985;39;114018;-79
2021/05/29 00:39:49;;;;;;;;;1.50;1.50;;;;;;;;3573751;39;111999;-79
2021/05/29 00:42:16;;;;;;;;;4.00;3.50;;;;;;;;3573195;39;113364;-79
2021/05/29 00:44:49;;;;;;;;;4.50;4.50;;;;;;;;3576523;39;114114;-79
2021/05/29 00:47:18;;;;;;;;;6.50;4.50;;;;;;;;3574633;39;113356;-78
2021/05/29 00:49:45;;;;;;;;;8.00;6.50;;;;;;;;3573617;39;113778;-79
2021/05/29 00:52:13;;;;;;;;;6.00;5.25;;;;;;;;3574369;39;112019;-81
2021/05/29 00:54:39;;;;;;;;;5.75;4.75;;;;;;;;3574356;39;113200;-79
2021/05/29 00:57:05;;;;;;;;;6.00;6.00;;;;;;;;3571945;39;113795;-78
2021/05/29 00:59:32;;;;;;;;;5.75;4.75;;;;;;;;3574370;39;112303;-78
2021/05/29 01:01:58;;;;;;;;;5.50;5.25;;;;;;;;3574378;39;113354;-76
2021/05/29 01:04:24;;;;;;;;;5.00;5.00;;;;;;;;3571911;39;113905;-79
2021/05/29 01:06:51;;;;;;;;;5.00;5.00;;;;;;;;3576421;39;111954;-77
2021/05/29 01:09:17;;;;;;;;;7.75;7.00;;;;;;;;3573852;39;113725;-75
2021/05/29 01:11:43;;;;;;;;;7.00;5.50;;;;;;;;3573877;39;111795;-76
2021/05/29 01:14:09;;;;;;;;;6.00;4.75;;;;;;;;3572158;39;113269;-76
2021/05/29 01:16:44;;;;;;;;;6.00;5.00;;;;;;;;3571710;39;114004;-77
2021/05/29 01:19:11;;;;;;;;;10.00;6.75;;;;;;;;3572165;39;112223;-77
2021/05/29 01:21:37;;;;;;;;;7.00;6.00;;;;;;;;3573936;39;113266;-79
2021/05/29 01:24:04;;;;;;;;;6.25;6.25;;;;;;;;3573269;39;114000;-78
2021/05/29 01:26:30;;;;;;;;;5.00;5.00;;;;;;;;3573783;39;112067;-77
2021/05/29 01:28:57;;;;;;;;;6.75;6.75;;;;;;;;3575938;39;113664;-77
2021/05/29 01:31:26;;;;;;;;;7.50;6.50;;;;;;;;3573126;39;112045;-78
2021/05/29 01:33:55;;;;;;;;;6.75;6.50;;;;;;;;3574101;39;114707;-80
2021/05/29 01:36:21;;;;;;;;;5.75;5.50;;;;;;;;3573446;39;113786;-76
2021/05/29 01:38:47;;;;;;;;;8.00;6.50;;;;;;;;3573651;39;112338;-82
2021/05/29 01:41:14;;;;;;;;;5.75;4.00;;;;;;;;3576273;39;113255;-77
2021/05/29 01:43:41;;;;;;;;;5.25;5.25;;;;;;;;3573005;39;114946;-75
2021/05/29 01:46:08;;;;;;;;;5.75;5.75;;;;;;;;3573558;39;112293;-77
2021/05/29 01:48:39;;;;;;;;;5.00;5.00;;;;;;;;3573223;39;113316;-77
2021/05/29 01:51:06;;;;;;;;;5.00;5.00;;;;;;;;3576377;39;114331;-77
2021/05/29 01:53:33;;;;;;;;;4.00;4.00;;;;;;;;3575117;39;113395;-77
2021/05/29 01:55:59;;;;;;;;;6.50;6.50;;;;;;;;3574391;39;113957;-76
2021/05/29 01:58:26;;;;;;;;;9.00;6.50;;;;;;;;3574785;39;112000;-77
2021/05/29 02:00:52;;;;;;;;;7.25;6.00;;;;;;;;3574849;39;113292;-78
2021/05/29 02:03:18;;;;;;;;;5.75;5.00;;;;;;;;3574464;39;114371;-77
2021/05/29 02:05:45;;;;;;;;;7.25;5.75;;;;;;;;3574162;39;113292;-77
2021/05/29 02:08:12;;;;;;;;;5.25;5.00;;;;;;;;3573494;39;113487;-77
2021/05/29 02:10:39;;;;;;;;;5.00;5.00;;;;;;;;3576984;39;113809;-77
2021/05/29 02:13:07;;;;;;;;;5.00;5.00;;;;;;;;3574718;39;113503;-77
2021/05/29 02:15:34;;;;;;;;;5.50;5.25;;;;;;;;3574440;39;113990;-77
2021/05/29 02:18:01;;;;;;;;;6.00;4.00;;;;;;;;3574807;39;112333;-76
2021/05/29 02:20:31;;;;;;;;;8.50;5.75;;;;;;;;3575104;39;113212;-77
2021/05/29 02:22:57;;;;;;;;;6.00;6.00;;;;;;;;3574501;39;114581;-77
2021/05/29 02:25:23;;;;;;;;;5.25;5.00;;;;;;;;3575237;39;112232;-77
2021/05/29 02:27:49;;;;;;;;;8.00;6.00;;;;;;;;3572729;39;113078;-77
2021/05/29 02:30:16;;;;;;;;;6.00;5.00;;;;;;;;3574389;39;113781;-78
2021/05/29 02:32:43;;;;;;;;;6.25;3.75;;;;;;;;3577578;39;111932;-78
2021/05/29 02:35:09;;;;;;;;;5.75;4.75;;;;;;;;3574584;39;113703;-77
2021/05/29 02:37:35;;;;;;;;;5.25;5.00;;;;;;;;3573071;39;112116;-76
2021/05/29 02:40:01;;;;;;;;;9.50;5.00;;;;;;;;3575190;39;113922;-77
2021/05/29 02:42:27;;;;;;;;;6.00;6.00;;;;;;;;3574645;39;114483;-77
2021/05/29 02:44:53;;;;;;;;;8.25;6.25;;;;;;;;3575104;39;111868;-76
2021/05/29 02:47:20;;;;;;;;;8.50;6.00;;;;;;;;3574982;39;113294;-77
2021/05/29 02:49:47;;;;;;;;;7.25;6.00;;;;;;;;3574324;39;113972;-76
2021/05/29 02:52:13;;;;;;;;;7.00;5.50;;;;;;;;3575091;39;111813;-79
2021/05/29 02:54:42;;;;;;;;;5.50;4.00;;;;;;;;3577076;39;113376;-78
2021/05/29 02:57:08;;;;;;;;;6.50;6.00;;;;;;;;3573177;39;111859;-78
2021/05/29 02:59:34;;;;;;;;;4.50;4.25;;;;;;;;3574813;39;113700;-78
2021/05/29 03:02:00;;;;;;;;;5.25;4.75;;;;;;;;3574428;39;114181;-79
2021/05/29 03:04:26;;;;;;;;;6.00;6.00;;;;;;;;3574803;39;111786;-77
2021/05/29 03:06:53;;;;;;;;;5.25;5.00;;;;;;;;3575119;39;113521;-77
2021/05/29 03:09:19;;;;;;;;;5.00;5.00;;;;;;;;3574604;39;113861;-77
2021/05/29 03:11:45;;;;;;;;;5.50;4.75;;;;;;;;3572411;39;112061;-76
2021/05/29 03:14:11;;;;;;;;;5.50;5.50;;;;;;;;3574972;39;113972;-76
2021/05/29 03:16:38;;;;;;;;;7.00;5.00;;;;;;;;3573428;39;112929;-77
2021/05/29 03:19:04;;;;;;;;;5.00;4.50;;;;;;;;3574735;39;113800;-76
2021/05/29 03:21:30;;;;;;;;;4.00;4.00;;;;;;;;3574546;39;113828;-76
2021/05/29 03:23:57;;;;;;;;;5.75;5.00;;;;;;;;3574540;39;112029;-76
2021/05/29 03:26:23;;;;;;;;;9.00;7.00;;;;;;;;3574772;39;113299;-77
2021/05/29 03:28:50;;;;;;;;;5.00;5.00;;;;;;;;3574227;39;113963;-76
2021/05/29 03:31:16;;;;;;;;;6.00;6.00;;;;;;;;3574569;39;112114;-76
2021/05/29 03:33:42;;;;;;;;;5.00;5.00;;;;;;;;3574879;39;113345;-76
2021/05/29 03:36:08;;;;;;;;;8.50;5.50;;;;;;;;3574389;39;113835;-76
2021/05/29 03:38:35;;;;;;;;;5.00;5.00;;;;;;;;3577470;39;112227;-76
2021/05/29 03:41:02;;;;;;;;;5.75;4.00;;;;;;;;3574320;39;113764;-76
2021/05/29 03:43:28;;;;;;;;;6.25;6.25;;;;;;;;3574774;39;112242;-76
2021/05/29 03:45:54;;;;;;;;;6.00;6.00;;;;;;;;3575085;39;113551;-76
2021/05/29 03:48:20;;;;;;;;;7.00;5.00;;;;;;;;3574446;39;113861;-76
2021/05/29 03:50:46;;;;;;;;;5.00;5.00;;;;;;;;3574616;39;111908;-76
2021/05/29 03:53:12;;;;;;;;;5.00;4.00;;;;;;;;3574859;39;113503;-76
2021/05/29 03:55:39;;;;;;;;;5.75;5.75;;;;;;;;3574166;39;113921;-76
2021/05/29 03:58:06;;;;;;;;;4.50;3.25;;;;;;;;3573916;39;112054;-75
2021/05/29 04:00:32;;;;;;;;;6.75;5.00;;;;;;;;3576522;39;113652;-75
2021/05/29 04:02:59;;;;;;;;;5.75;5.25;;;;;;;;3573530;39;111727;-75
2021/05/29 04:05:25;;;;;;;;;4.00;4.00;;;;;;;;3573351;39;113445;-76
2021/05/29 04:07:51;;;;;;;;;6.50;5.00;;;;;;;;3573686;39;113941;-76
2021/05/29 04:10:19;;;;;;;;;4.00;4.00;;;;;;;;3574645;39;112240;-74
2021/05/29 04:12:46;;;;;;;;;6.75;5.50;;;;;;;;3572861;39;113688;-76
2021/05/29 04:15:14;;;;;;;;;4.00;4.00;;;;;;;;3573874;39;114448;-76
2021/05/29 04:17:41;;;;;;;;;6.50;4.25;;;;;;;;3574091;39;112070;-76
2021/05/29 04:20:08;;;;;;;;;8.50;8.50;;;;;;;;3576740;39;113640;-75
2021/05/29 04:22:35;;;;;;;;;7.00;5.00;;;;;;;;3574176;39;112063;-74
2021/05/29 04:25:01;;;;;;;;;6.50;6.50;;;;;;;;3574227;39;113218;-76
2021/05/29 04:27:27;;;;;;;;;2.00;2.00;;;;;;;;3573733;39;113813;-76
2021/05/29 04:29:54;;;;;;;;;6.00;5.00;;;;;;;;3574511;39;111981;-76
2021/05/29 04:32:21;;;;;;;;;7.50;5.00;;;;;;;;3574444;39;113799;-75
2021/05/29 04:34:47;;;;;;;;;7.00;6.00;;;;;;;;3573797;39;113852;-77
2021/05/29 04:37:15;;;;;;;;;6.00;5.00;;;;;;;;3574575;39;112048;-76
2021/05/29 04:39:41;;;;;;;;;5.00;3.50;;;;;;;;3574116;39;113249;-75
2021/05/29 04:42:08;;;;;;;;;6.25;6.25;;;;;;;;3576424;39;113909;-76
2021/05/29 04:44:34;;;;;;;;;5.50;5.50;;;;;;;;3574112;39;113201;-76
2021/05/29 04:47:01;;;;;;;;;6.25;6.25;;;;;;;;3573767;39;113877;-77
2021/05/29 04:49:29;;;;;;;;;5.75;5.75;;;;;;;;3573992;39;112274;-74
2021/05/29 04:51:55;;;;;;;;;4.75;4.75;;;;;;;;3574231;39;114186;-74
2021/05/29 04:54:21;;;;;;;;;5.00;5.00;;;;;;;;3573199;39;114025;-77
2021/05/29 04:56:47;;;;;;;;;5.00;5.00;;;;;;;;3573347;39;112528;-76
2021/05/29 04:59:13;;;;;;;;;6.00;5.00;;;;;;;;3574718;39;113333;-77
2021/05/29 05:01:40;;;;;;;;;6.00;5.25;;;;;;;;3573837;39;113864;-77
2021/05/29 05:04:07;;;;;;;;;6.00;5.00;;;;;;;;3576879;39;111869;-75
2021/05/29 05:06:34;;;;;;;;;6.00;6.00;;;;;;;;3574111;39;113774;-77
2021/05/29 05:09:00;;;;;;;;;5.50;5.50;;;;;;;;3575282;39;112129;-76
2021/05/29 05:11:27;;;;;;;;;5.25;5.25;;;;;;;;3575242;39;113212;-76
2021/05/29 05:13:53;;;;;;;;;6.00;5.00;;;;;;;;3574685;39;114236;-77
2021/05/29 05:16:19;;;;;;;;;9.00;6.25;;;;;;;;3575130;39;111836;-76
2021/05/29 05:18:45;;;;;;;;;3.00;3.00;;;;;;;;3574674;39;113376;-77
2021/05/29 05:21:11;;;;;;;;;4.50;4.50;;;;;;;;3574570;39;113884;-77
2021/05/29 05:23:38;;;;;;;;;5.50;5.50;;;;;;;;3575486;39;112036;-77
2021/05/29 05:26:04;;;;;;;;;8.75;6.75;;;;;;;;3578697;39;113403;-76
2021/05/29 05:28:31;;;;;;;;;2.00;2.00;;;;;;;;3575726;39;111980;-76
2021/05/29 05:30:58;;;;;;;;;7.00;5.50;;;;;;;;3575316;39;113228;-75
2021/05/29 05:33:25;;;;;;;;;7.00;7.00;;;;;;;;3575139;39;113848;-76
2021/05/29 05:35:51;;;;;;;;;9.00;8.50;;;;;;;;3575209;39;112051;-74
2021/05/29 05:38:17;;;;;;;;;5.50;5.50;;;;;;;;3575331;39;113206;-74
2021/05/29 05:40:44;;;;;;;;;11.00;8.25;;;;;;;;3574420;39;113929;-74
2021/05/29 05:43:10;;;;;;;;;6.50;6.50;;;;;;;;3575269;39;111824;-76
2021/05/29 05:45:36;;;;;;;;;9.25;9.00;;;;;;;;3575094;39;113629;-78
2021/05/29 05:48:03;;;;;;;;;7.25;7.25;;;;;;;;3577256;39;114072;-75
2021/05/29 05:50:29;;;;;;;;;6.50;6.50;;;;;;;;3575270;39;113248;-75
2021/05/29 05:52:55;;;;;;;;;6.50;5.25;;;;;;;;3574623;39;114034;-74
2021/05/29 05:55:21;;;;;;;;;9.50;8.50;;;;;;;;3574681;39;112037;-74
2021/05/29 05:57:48;;;;;;;;;6.75;6.75;;;;;;;;3573272;39;113362;-74
2021/05/29 06:00:16;;;;;;;;;9.50;8.00;;;;;;;;3571187;39;112940;-72
2021/05/29 06:02:43;;;;;;;;;10.25;9.50;;;;;;;;3574999;39;111896;-72
2021/05/29 06:05:09;;;;;;;;;0.00;0.00;;;;;;;;3574942;39;112222;-72
2021/05/29 06:07:35;;;;;;;;;11.00;10.00;;;;;;;;3571960;39;113924;-72
2021/05/29 06:10:01;;;;;;;;;9.00;7.00;;;;;;;;3574670;39;111810;-73
2021/05/29 06:12:27;;;;;;;;;7.00;7.00;;;;;;;;3574550;39;113862;-74
2021/05/29 06:18:03;;;;;;;;;10.75;10.25;;;;;;;;3573129;39;112172;-72
2021/05/29 06:20:29;;;;;;;;;9.00;5.00;;;;;;;;3574010;39;114465;-73
2021/05/29 06:22:55;;;;;;;;;9.25;9.00;;;;;;;;3574973;39;111800;-76
2021/05/29 06:25:22;;;;;;;;;7.50;7.50;;;;;;;;3575036;39;113575;-79
2021/05/29 06:27:48;;;;;;;;;12.75;10.25;;;;;;;;3574586;39;113989;-76
2021/05/29 06:30:15;;;;;;;;;9.00;6.00;;;;;;;;3575503;39;113416;-75
2021/05/29 06:32:41;;;;;;;;;7.00;7.00;;;;;;;;3574642;39;114480;-75
2021/05/29 06:35:08;;;;;;;;;11.50;10.00;;;;;;;;3574136;39;111903;-75
2021/05/29 06:37:35;;;;;;;;;9.50;6.00;;;;;;;;3571692;39;114112;-75
2021/05/29 06:40:01;;;;;;;;;10.75;10.00;;;;;;;;3572165;39;114070;-75
2021/05/29 06:42:27;;;;;;;;;12.00;11.00;;;;;;;;3574545;39;112301;-75
2021/05/29 06:44:53;;;;;;;;;7.50;7.50;;;;;;;;3574637;39;113236;-76
2021/05/29 06:47:20;;;;;;;;;9.25;8.75;;;;;;;;3571955;39;114184;-73
2021/05/29 06:49:46;;;;;;;;;11.00;8.25;;;;;;;;3573754;39;111929;-75
2021/05/29 06:52:14;;;;;;;;;10.00;7.50;;;;;;;;3576276;39;113188;-75
2021/05/29 06:54:51;;;;;;;;;10.25;8.50;;;;;;;;3573891;39;112102;-75
2021/05/29 07:00:02;;;;;;;;;7.50;7.50;;;;;;;;3573906;39;112446;-72
2021/05/29 07:02:29;;;;;;;;;5.00;5.00;;;;;;;;3574391;39;112238;-72
2021/05/29 07:04:55;;;;;;;;;6.00;5.25;;;;;;;;3574543;39;113683;-72
2021/05/29 07:07:22;;;;;;;;;6.75;6.75;;;;;;;;3571545;39;114344;-72
2021/05/29 07:09:48;;;;;;;;;7.00;7.00;;;;;;;;3571627;39;112242;-73
2021/05/29 07:12:14;;;;;;;;;7.50;6.25;;;;;;;;3571410;39;113857;-73
2021/05/29 07:14:40;;;;;;;;;5.75;5.75;;;;;;;;3574905;39;114117;-74
2021/05/29 07:17:07;;;;;;;;;3.00;2.00;;;;;;;;3568450;39;112343;-73
2021/05/29 07:19:35;;;;;;;;;6.00;5.00;;;;;;;;3573373;39;113908;-74
2021/05/29 07:22:01;;;;;;;;;5.50;5.25;;;;;;;;3574415;39;111889;-77
2021/05/29 07:24:27;;;;;;;;;7.00;7.00;;;;;;;;3574125;39;113555;-76
2021/05/29 07:26:53;;;;;;;;;6.00;5.00;;;;;;;;3573154;39;114159;-80
2021/05/29 07:30:07;;;;;;;;;8.00;7.75;;;;;;;;3578406;39;112198;-70
2021/05/29 07:32:33;;;;;;;;;7.00;7.00;;;;;;;;3565373;39;113641;-72
2021/05/29 07:35:00;;;;;;;;;8.00;6.25;;;;;;;;3565607;39;112080;-70
2021/05/29 07:37:26;;;;;;;;;10.00;7.25;;;;;;;;3566286;39;113992;-70
2021/05/29 07:39:52;;;;;;;;;8.25;7.00;;;;;;;;3562308;39;113535;-70
2021/05/29 07:42:18;;;;;;;;;6.25;6.25;;;;;;;;3564787;39;112309;-71
2021/05/29 07:44:44;;;;;;;;;7.50;6.00;;;;;;;;3566256;39;113409;-73
2021/05/29 07:47:11;;;;;;;;;6.50;6.50;;;;;;;;3566329;39;114155;-71
2021/05/29 07:49:38;;;;;;;;;6.50;5.75;;;;;;;;3568774;39;112188;-70
2021/05/29 07:52:04;;;;;;;;;4.33;4.00;;;;;;;;3563816;39;112800;-72
2021/05/29 07:54:31;;;;;;;;;9.00;6.00;;;;;;;;3565850;39;111976;-75
2021/05/29 07:56:57;;;;;;;;;9.33;7.00;;;;;;;;3565110;39;113115;-68
2021/05/29 07:59:24;;;;;;;;;7.67;7.67;;;;;;;;3565369;39;114033;-70
2021/05/29 08:01:51;;;;;;;;;7.00;5.00;;;;;;;;3566816;39;111815;-69
2021/05/29 08:04:18;;;;;;;;;7.67;5.67;;;;;;;;3568230;39;111986;-77
2021/05/29 08:06:44;;;;;;;;;7.33;6.33;;;;;;;;3565644;39;113752;-75
2021/05/29 08:09:10;;;;;;;;;6.00;6.00;;;;;;;;3567710;39;112439;-75
2021/05/29 08:11:37;;;;;;;;;10.67;8.67;;;;;;;;3565799;39;113185;-74
2021/05/29 08:14:06;;;;;;;;;11.00;10.00;;;;;;;;3567549;39;112300;-75
2021/05/29 08:16:32;;;;;;;;;9.67;8.00;;;;;;;;3566140;39;114024;-75
2021/05/29 08:18:58;;;;;;;;;6.67;6.67;;;;;;;;3566652;39;114246;-75
2021/05/29 08:21:25;;;;;;;;;7.67;5.67;;;;;;;;3566338;39;111913;-75
2021/05/29 08:23:52;;;;;;;;;6.33;6.00;;;;;;;;3566259;39;113249;-75
2021/05/29 08:26:19;;;;;;;;;5.00;5.00;;;;;;;;3566412;39;114437;-75
2021/05/29 08:28:45;;;;;;;;;5.67;5.00;;;;;;;;3565749;39;111801;-75
2021/05/29 08:31:12;;;;;;;;;6.33;5.33;;;;;;;;3567318;39;113145;-74
2021/05/29 08:33:39;;;;;;;;;5.00;4.00;;;;;;;;3565953;39;113120;-78
2021/05/29 08:36:05;;;;;;;;;6.67;5.67;;;;;;;;3567395;39;113287;-76
2021/05/29 08:38:32;;;;;;;;;7.33;7.33;;;;;;;;3564516;39;112917;-73
2021/05/29 08:40:59;;;;;;;;;7.00;6.00;;;;;;;;3559361;39;112274;-72
2021/05/29 08:43:27;;;;;;;;;7.00;7.00;;;;;;;;3559524;39;113360;-77
2021/05/29 08:45:54;;;;;;;;;6.33;6.00;;;;;;;;3559515;39;114232;-73
2021/05/29 08:48:20;;;;;;;;;8.00;7.67;;;;;;;;3559598;39;111812;-76
2021/05/29 08:53:27;;;;;;;;;6.33;6.00;;;;;;;;3549064;39;113801;-73
2021/05/29 08:55:54;;;;;;;;;6.33;5.67;;;;;;;;3561912;39;112144;-84
2021/05/29 08:58:20;;;;;;;;;6.33;5.67;;;;;;;;3558880;39;113915;-73
2021/05/29 09:00:46;;;;;;;;;5.00;5.00;;;;;;;;3557819;39;112244;-73
2021/05/29 09:03:12;;;;;;;;;7.00;7.00;;;;;;;;3557992;39;113381;-73
2021/05/29 09:05:40;;;;;;;;;10.00;6.67;;;;;;;;3559785;39;114324;-74
2021/05/29 09:08:07;;;;;;;;;6.33;6.33;;;;;;;;3554841;39;112023;-74
2021/05/29 09:10:34;;;;;;;;;6.67;6.67;;;;;;;;3558424;39;113561;-74
2021/05/29 09:13:06;;;;;;;;;8.00;6.67;;;;;;;;3555233;39;112864;-73
2021/05/29 09:15:42;;;;;;;;;6.67;6.33;;;;;;;;3559512;39;112459;-73
2021/05/29 09:18:22;;;;;;;;;6.33;6.33;;;;;;;;3558947;39;113253;-73
2021/05/29 09:20:48;;;;;;;;;9.67;8.00;;;;;;;;3557769;39;112309;-74
2021/05/29 09:23:14;;;;;;;;;7.00;5.67;;;;;;;;3560056;39;113182;-74
2021/05/29 09:25:51;;;;;;;;;7.33;6.00;;;;;;;;3558026;39;113827;-73
2021/05/29 09:28:22;;;;;;;;;9.33;8.00;;;;;;;;3559767;39;111913;-73
2021/05/29 09:30:50;;;;;;;;;7.33;7.00;;;;;;;;3559005;39;113255;-73
2021/05/29 09:33:18;;;;;;;;;8.67;6.33;;;;;;;;3559486;39;114506;-74
2021/05/29 09:35:48;;;;;;;;;8.00;6.00;;;;;;;;3558683;39;112323;-73
2021/05/29 09:38:15;;;;;;;;;8.00;7.00;;;;;;;;3557873;39;113292;-76
2021/05/29 09:40:48;;;;;;;;;7.33;5.00;;;;;;;;3560629;39;111900;-73
2021/05/29 09:43:14;;;;;;;;;7.00;7.00;;;;;;;;3560088;39;113425;-73
2021/05/29 09:45:41;;;;;;;;;5.67;5.67;;;;;;;;3557866;39;113787;-73
2021/05/29 09:48:11;;;;;;;;;5.00;5.00;;;;;;;;3560428;39;111878;-73
2021/05/29 09:50:37;;;;;;;;;5.00;5.00;;;;;;;;3556509;39;113167;-72
2021/05/29 09:53:03;;;;;;;;;9.00;7.33;;;;;;;;3559189;39;113788;-72
2021/05/29 09:55:47;;;;;;;;;7.67;7.67;;;;;;;;3556651;39;113732;-73
2021/05/29 09:58:13;;;;;;;;;8.67;8.00;;;;;;;;3557537;39;113242;-72
2021/05/29 10:00:42;;;;;;;;;7.00;6.00;;;;;;;;3561605;39;112938;-73
2021/05/29 10:03:10;;;;;;;;;7.00;5.00;;;;;;;;3558575;39;113302;-73
2021/05/29 10:05:36;;;;;;;;;5.00;5.00;;;;;;;;3555794;39;113883;-73
2021/05/29 10:08:02;;;;;;;;;4.00;4.00;;;;;;;;3560118;39;111924;-73
2021/05/29 10:10:29;;;;;;;;;9.00;7.33;;;;;;;;3558618;39;113310;-73
2021/05/29 10:12:55;;;;;;;;;10.00;10.00;;;;;;;;3559034;39;114004;-74
2021/05/29 10:15:21;;;;;;;;;7.00;6.67;;;;;;;;3559194;39;111777;-73
2021/05/29 10:17:48;;;;;;;;;7.33;7.00;;;;;;;;3558762;39;113170;-74
2021/05/29 10:20:16;;;;;;;;;7.33;5.00;;;;;;;;3553332;39;114501;-73
2021/05/29 10:22:42;;;;;;;;;6.00;6.00;;;;;;;;3562520;39;111879;-74
2021/05/29 10:25:11;;;;;;;;;6.00;6.00;;;;;;;;3558009;39;113970;-74
2021/05/29 10:27:38;;;;;;;;;6.00;6.00;;;;;;;;3556205;39;112155;-74
2021/05/29 10:30:04;;;;;;;;;4.00;4.00;;;;;;;;3560232;39;113335;-74
2021/05/29 10:32:30;;;;;;;;;5.67;5.00;;;;;;;;3557856;39;113833;-73
2021/05/29 10:34:58;;;;;;;;;7.00;6.00;;;;;;;;3559492;39;111973;-74
2021/05/29 10:37:30;;;;;;;;;7.00;6.00;;;;;;;;3558856;39;113224;-73
2021/05/29 10:40:12;;;;;;;;;5.67;5.67;;;;;;;;3558917;39;113834;-73
2021/05/29 10:42:38;;;;;;;;;5.33;5.33;;;;;;;;3556533;39;112105;-73
2021/05/29 10:45:15;;;;;;;;;5.00;4.00;;;;;;;;3558290;39;113495;-73
2021/05/29 10:47:56;;;;;;;;;3.33;3.00;;;;;;;;3556575;39;111763;-73
2021/05/29 10:50:22;;;;;;;;;7.67;6.67;;;;;;;;3558871;39;113005;-73
2021/05/29 10:52:52;;;;;;;;;5.67;5.67;;;;;;;;3558133;39;114522;-73
2021/05/29 10:55:25;;;;;;;;;3.00;3.00;;;;;;;;3559314;39;112207;-74
2021/05/29 10:57:52;;;;;;;;;4.33;3.33;;;;;;;;3559116;39;113306;-74
2021/05/29 11:00:36;;;;;;;;;5.00;4.00;;;;;;;;3558873;39;114270;-74
2021/05/29 11:03:21;;;;;;;;;3.67;2.33;;;;;;;;3559514;39;112313;-74
2021/05/29 11:05:48;;;;;;;;;5.67;5.00;;;;;;;;3557466;39;113553;-74
2021/05/29 11:08:33;;;;;;;;;12.00;7.00;;;;;;;;3561521;39;114227;-73
2021/05/29 11:11:00;;;;;;;;;8.33;6.33;;;;;;;;3559407;39;113339;-73
2021/05/29 11:13:57;;;;;;;;;4.67;4.67;;;;;;;;3557968;39;113872;-73
2021/05/29 11:16:23;;;;;;;;;5.33;5.33;;;;;;;;3557143;39;111957;-74
2021/05/29 11:19:08;;;;;;;;;6.67;6.00;;;;;;;;3558811;39;113639;-73
2021/05/29 11:21:34;;;;;;;;;4.67;4.67;;;;;;;;3555560;39;114206;-73
2021/05/29 11:24:16;;;;;;;;;4.33;3.00;;;;;;;;3559252;39;112356;-73
2021/05/29 11:26:43;;;;;;;;;5.00;4.00;;;;;;;;3558124;39;113923;-74
2021/05/29 11:29:09;;;;;;;;;7.67;5.67;;;;;;;;3558805;39;113857;-73
2021/05/29 11:31:42;;;;;;;;;7.00;4.00;;;;;;;;3560652;39;111826;-72
2021/05/29 11:34:08;;;;;;;;;4.00;4.00;;;;;;;;3553734;39;113817;-75
2021/05/29 11:36:38;;;;;;;;;4.00;4.00;;;;;;;;3555855;39;111841;-75
2021/05/29 11:39:07;;;;;;;;;6.67;6.67;;;;;;;;3555558;39;113571;-75
2021/05/29 11:41:33;;;;;;;;;3.67;3.67;;;;;;;;3555367;39;114035;-73
2021/05/29 11:44:01;;;;;;;;;5.00;5.00;;;;;;;;3558965;39;112171;-74
2021/05/29 11:46:29;;;;;;;;;5.33;3.67;;;;;;;;3558161;39;113501;-74
2021/05/29 11:48:56;;;;;;;;;5.33;3.67;;;;;;;;3558510;39;113838;-74
2021/05/29 11:51:23;;;;;;;;;4.00;3.33;;;;;;;;3561224;39;111773;-74
2021/05/29 11:53:50;;;;;;;;;4.33;3.33;;;;;;;;3557880;39;113919;-73
2021/05/29 11:56:17;;;;;;;;;5.00;4.00;;;;;;;;3551093;39;112455;-72
2021/05/29 11:58:47;;;;;;;;;1.67;1.67;;;;;;;;3550518;39;113338;-73
2021/05/29 12:01:15;;;;;;;;;4.00;4.00;;;;;;;;3556872;39;113972;-75
2021/05/29 12:03:45;;;;;;;;;4.67;4.67;;;;;;;;3557596;39;111924;-73
2021/05/29 12:06:12;;;;;;;;;3.00;3.00;;;;;;;;3557602;39;113467;-73
2021/05/29 12:08:54;;;;;;;;;2.67;2.67;;;;;;;;3557880;39;114071;-73
2021/05/29 12:11:21;;;;;;;;;3.00;3.00;;;;;;;;3558270;39;111877;-73
2021/05/29 12:13:55;;;;;;;;;4.00;3.00;;;;;;;;3560970;39;113313;-74
2021/05/29 12:16:25;;;;;;;;;5.33;4.67;;;;;;;;3559620;39;112072;-74
2021/05/29 12:18:51;;;;;;;;;6.00;5.00;;;;;;;;3557156;39;113754;-76
2021/05/29 12:21:17;;;;;;;;;5.00;4.00;;;;;;;;3556786;39;114415;-74
2021/05/29 12:23:53;;;;;;;;;4.00;4.00;;;;;;;;3558271;39;112873;-73
2021/05/29 12:26:20;;;;;;;;;3.33;2.67;;;;;;;;3559349;39;113848;-72
2021/05/29 12:28:46;;;;;;;;;4.67;4.67;;;;;;;;3559577;39;113842;-73
2021/05/29 12:31:12;;;;;;;;;4.00;4.00;;;;;;;;3558890;39;111791;-74
2021/05/29 12:33:39;;;;;;;;;4.00;4.00;;;;;;;;3560821;39;113286;-74
2021/05/29 12:36:06;;;;;;;;;8.00;7.67;;;;;;;;3561045;39;113992;-73
2021/05/29 12:38:33;;;;;;;;;5.00;4.67;;;;;;;;3558068;39;113243;-76
2021/05/29 12:41:00;;;;;;;;;4.00;4.00;;;;;;;;3558300;39;113843;-73
2021/05/29 12:43:26;;;;;;;;;5.33;4.00;;;;;;;;3558479;39;112785;-80
2021/05/29 12:45:52;;;;;;;;;5.00;5.00;;;;;;;;3559724;39;113586;-72
2021/05/29 12:48:19;;;;;;;;;4.67;3.00;;;;;;;;3556918;39;112906;-71
2021/05/29 12:51:00;;;;;;;;;5.00;4.50;;;;;;;;3557421;39;112850;-71
2021/05/29 12:53:27;;;;;;;;;5.00;4.00;;;;;;;;3559176;39;113279;-72
2021/05/29 12:56:06;;;;;;;;;4.00;4.00;;;;;;;;3557746;39;115162;-71
2021/05/29 12:58:32;;;;;;;;;4.67;4.67;;;;;;;;3558405;39;111965;-72
2021/05/29 13:01:13;;;;;;;;;5.00;5.00;;;;;;;;3558934;39;113842;-72
2021/05/29 13:09:26;;;;;;;;;4.00;4.00;;;;;;;;3558839;39;113481;-72
2021/05/29 13:11:53;;;;;;;;;5.00;4.00;;;;;;;;3559243;39;111864;-74
2021/05/29 13:14:27;;;;;;;;;4.33;4.33;;;;;;;;3559469;39;113320;-73
2021/05/29 13:16:54;;;;;;;;;5.00;4.00;;;;;;;;3558861;39;114165;-74
2021/05/29 13:19:21;;;;;;;;;3.33;3.33;;;;;;;;3559557;39;112122;-74
2021/05/29 13:21:52;;;;;;;;;4.67;4.67;;;;;;;;3556029;39;113525;-72
2021/05/29 13:24:36;;;;;;;;;6.33;5.00;;;;;;;;3551550;39;111860;-73
2021/05/29 13:27:03;;;;;;;;;4.33;4.33;;;;;;;;3554497;39;113231;-73
2021/05/29 13:29:29;;;;;;;;;3.67;3.67;;;;;;;;3552892;39;114016;-72
2021/05/29 13:31:55;;;;;;;;;4.00;4.00;;;;;;;;3557121;39;112491;-72
2021/05/29 13:34:21;;;;;;;;;4.00;3.00;;;;;;;;3559360;39;112203;-73
2021/05/29 13:36:47;;;;;;;;;4.00;4.00;;;;;;;;3559542;39;113810;-72
2021/05/29 13:39:16;;;;;;;;;5.00;4.00;;;;;;;;3558758;39;112027;-73
2021/05/29 13:41:42;;;;;;;;;5.67;4.33;;;;;;;;3558417;39;113369;-73
2021/05/29 13:44:09;;;;;;;;;6.33;5.33;;;;;;;;3560724;39;113617;-72
2021/05/29 13:46:35;;;;;;;;;3.67;3.67;;;;;;;;3559782;39;113441;-74
2021/05/29 13:49:01;;;;;;;;;6.00;6.00;;;;;;;;3552949;39;113729;-75
2021/05/29 13:51:27;;;;;;;;;3.33;3.33;;;;;;;;3550899;39;112009;-72
2021/05/29 13:53:55;;;;;;;;;4.67;4.67;;;;;;;;3551236;39;113188;-73
2021/05/29 13:56:21;;;;;;;;;4.00;3.67;;;;;;;;3550947;39;114068;-74
2021/05/29 13:58:49;;;;;;;;;8.00;6.00;;;;;;;;3557323;39;111926;-73
2021/05/29 14:01:15;;;;;;;;;5.00;5.00;;;;;;;;3559565;39;112782;-72
2021/05/29 14:03:41;;;;;;;;;5.00;3.67;;;;;;;;3561328;39;113863;-73
2021/05/29 14:06:07;;;;;;;;;6.00;6.00;;;;;;;;3557407;39;113634;-71
2021/05/29 14:08:33;;;;;;;;;5.67;4.00;;;;;;;;3556644;39;113853;-71
2021/05/29 14:11:01;;;;;;;;;5.00;5.00;;;;;;;;3558827;39;111816;-71
2021/05/29 14:13:28;;;;;;;;;3.75;3.75;;;;;;;;3558448;39;113374;-72
2021/05/29 14:15:54;;;;;;;;;4.25;4.25;;;;;;;;3558714;39;114059;-72
2021/05/29 14:18:20;;;;;;;;;5.50;4.00;;;;;;;;3559499;39;113007;-73
2021/05/29 14:20:46;;;;;;;;;4.50;3.75;;;;;;;;3558802;39;113464;-74
2021/05/29 14:23:12;;;;;;;;;2.50;2.50;;;;;;;;3559471;39;113882;-71
2021/05/29 14:25:38;;;;;;;;;5.50;5.00;;;;;;;;3561177;39;111892;-72
2021/05/29 14:28:04;;;;;;;;;7.50;6.00;;;;;;;;3554927;39;113901;-74
2021/05/29 14:30:31;;;;;;;;;7.50;6.00;;;;;;;;3558109;39;113259;-74
2021/05/29 14:32:57;;;;;;;;;4.75;4.75;;;;;;;;3559713;39;113277;-74
2021/05/29 14:35:24;;;;;;;;;4.00;4.00;;;;;;;;3558600;39;113888;-74
2021/05/29 14:37:50;;;;;;;;;4.25;4.25;;;;;;;;3558328;39;111907;-74
2021/05/29 14:40:16;;;;;;;;;7.50;5.75;;;;;;;;3556437;39;113854;-74
2021/05/29 14:42:42;;;;;;;;;7.50;6.00;;;;;;;;3555905;39;113875;-75
2021/05/29 14:45:09;;;;;;;;;5.75;5.00;;;;;;;;3554052;39;112139;-75